sensor_id;sensor_type;location;lat;lon;timestamp;P1;durP1;ratioP1;P2;durP2;ratioP2
66761;SDS011;53672;48.176;16.338;2023-01-08T00:03:49;137.23;;;29.13;;
66761;SDS011;53672;48.176;16.338;2023-01-08T00:08:52;123.25;;;25.10;;
66761;SDS011;53672;48.176;16.338;2023-01-08T00:13:53;78.17;;;21.80;;
66761;SDS011;53672;48.176;16.338;2023-01-08T00:18:53;91.70;;;25.47;;
66761;SDS011;53672;48.176;16.338;2023-01-08T00:23:55;80.47;;;24.20;;
66761;SDS011;53672;48.176;16.338;2023-01-08T00:28:56;70.07;;;24.02;;
66761;SDS011;53672;48.176;16.338;2023-01-08T00:33:57;102.97;;;26.75;;
66761;SDS011;53672;48.176;16.338;2023-01-08T00:38:58;84.67;;;26.27;;
66761;SDS011;53672;48.176;16.338;2023-01-08T00:43:59;73.20;;;25.83;;
66761;SDS011;53672;48.176;16.338;2023-01-08T00:48:59;88.10;;;26.20;;
66761;SDS011;53672;48.176;16.338;2023-01-08T00:54:01;78.32;;;25.90;;
66761;SDS011;53672;48.176;16.338;2023-01-08T00:59:02;76.87;;;25.80;;
66761;SDS011;53672;48.176;16.338;2023-01-08T01:04:03;79.83;;;25.73;;
66761;SDS011;53672;48.176;16.338;2023-01-08T01:09:05;87.18;;;27.65;;
66761;SDS011;53672;48.176;16.338;2023-01-08T01:14:05;91.47;;;28.73;;
66761;SDS011;53672;48.176;16.338;2023-01-08T01:19:06;81.07;;;23.70;;
66761;SDS011;53672;48.176;16.338;2023-01-08T01:24:08;87.90;;;25.80;;
66761;SDS011;53672;48.176;16.338;2023-01-08T01:29:10;83.18;;;25.50;;
66761;SDS011;53672;48.176;16.338;2023-01-08T01:34:11;79.50;;;26.13;;
66761;SDS011;53672;48.176;16.338;2023-01-08T01:39:13;77.97;;;24.80;;
66761;SDS011;53672;48.176;16.338;2023-01-08T01:44:33;80.90;;;25.35;;
66761;SDS011;53672;48.176;16.338;2023-01-08T01:49:36;86.32;;;25.30;;
66761;SDS011;53672;48.176;16.338;2023-01-08T01:54:39;79.03;;;25.77;;
66761;SDS011;53672;48.176;16.338;2023-01-08T01:59:40;95.75;;;23.02;;
66761;SDS011;53672;48.176;16.338;2023-01-08T02:04:41;98.90;;;26.20;;
66761;SDS011;53672;48.176;16.338;2023-01-08T02:09:45;83.23;;;25.83;;
66761;SDS011;53672;48.176;16.338;2023-01-08T02:14:58;93.60;;;25.55;;
66761;SDS011;53672;48.176;16.338;2023-01-08T02:20:04;93.70;;;26.40;;
66761;SDS011;53672;48.176;16.338;2023-01-08T02:25:12;87.73;;;25.60;;
66761;SDS011;53672;48.176;16.338;2023-01-08T02:30:20;79.35;;;23.67;;
66761;SDS011;53672;48.176;16.338;2023-01-08T02:35:21;99.33;;;25.30;;
66761;SDS011;53672;48.176;16.338;2023-01-08T02:40:23;90.50;;;24.25;;
66761;SDS011;53672;48.176;16.338;2023-01-08T02:45:33;77.72;;;25.60;;
66761;SDS011;53672;48.176;16.338;2023-01-08T02:50:38;106.10;;;26.17;;
66761;SDS011;53672;48.176;16.338;2023-01-08T02:55:45;81.37;;;26.70;;
66761;SDS011;53672;48.176;16.338;2023-01-08T03:00:51;93.97;;;26.80;;
66761;SDS011;53672;48.176;16.338;2023-01-08T03:05:54;93.55;;;26.33;;
66761;SDS011;53672;48.176;16.338;2023-01-08T03:10:59;93.55;;;25.67;;
66761;SDS011;53672;48.176;16.338;2023-01-08T03:16:06;86.40;;;22.00;;
66761;SDS011;53672;48.176;16.338;2023-01-08T03:21:11;83.77;;;24.03;;
66761;SDS011;53672;48.176;16.338;2023-01-08T03:26:13;91.38;;;24.70;;
66761;SDS011;53672;48.176;16.338;2023-01-08T03:31:18;92.50;;;25.45;;
66761;SDS011;53672;48.176;16.338;2023-01-08T03:36:23;94.78;;;26.85;;
66761;SDS011;53672;48.176;16.338;2023-01-08T03:41:27;93.85;;;25.55;;
66761;SDS011;53672;48.176;16.338;2023-01-08T03:46:32;90.50;;;25.20;;
66761;SDS011;53672;48.176;16.338;2023-01-08T03:51:39;88.63;;;25.83;;
66761;SDS011;53672;48.176;16.338;2023-01-08T03:56:41;98.72;;;25.60;;
66761;SDS011;53672;48.176;16.338;2023-01-08T04:01:43;83.18;;;25.67;;
66761;SDS011;53672;48.176;16.338;2023-01-08T04:06:44;92.30;;;25.50;;
66761;SDS011;53672;48.176;16.338;2023-01-08T04:11:44;85.63;;;24.93;;
66761;SDS011;53672;48.176;16.338;2023-01-08T04:16:46;78.53;;;24.80;;
66761;SDS011;53672;48.176;16.338;2023-01-08T04:21:48;74.18;;;21.88;;
66761;SDS011;53672;48.176;16.338;2023-01-08T04:26:49;81.30;;;22.88;;
66761;SDS011;53672;48.176;16.338;2023-01-08T04:31:51;94.97;;;24.00;;
66761;SDS011;53672;48.176;16.338;2023-01-08T04:36:51;86.38;;;23.88;;
66761;SDS011;53672;48.176;16.338;2023-01-08T04:41:52;70.57;;;22.10;;
66761;SDS011;53672;48.176;16.338;2023-01-08T04:46:54;74.33;;;21.33;;
66761;SDS011;53672;48.176;16.338;2023-01-08T04:51:54;62.90;;;20.60;;
66761;SDS011;53672;48.176;16.338;2023-01-08T04:56:55;68.90;;;20.70;;
66761;SDS011;53672;48.176;16.338;2023-01-08T05:01:56;65.87;;;20.73;;
66761;SDS011;53672;48.176;16.338;2023-01-08T05:06:57;72.00;;;21.13;;
66761;SDS011;53672;48.176;16.338;2023-01-08T05:11:58;71.00;;;21.17;;
66761;SDS011;53672;48.176;16.338;2023-01-08T05:17:00;74.20;;;22.80;;
66761;SDS011;53672;48.176;16.338;2023-01-08T05:22:00;69.27;;;21.33;;
66761;SDS011;53672;48.176;16.338;2023-01-08T05:27:01;81.67;;;21.77;;
66761;SDS011;53672;48.176;16.338;2023-01-08T05:32:03;74.05;;;21.30;;
66761;SDS011;53672;48.176;16.338;2023-01-08T05:37:05;66.47;;;20.75;;
66761;SDS011;53672;48.176;16.338;2023-01-08T05:42:06;61.20;;;20.23;;
66761;SDS011;53672;48.176;16.338;2023-01-08T05:47:07;70.10;;;21.47;;
66761;SDS011;53672;48.176;16.338;2023-01-08T05:52:08;72.47;;;21.67;;
66761;SDS011;53672;48.176;16.338;2023-01-08T05:57:08;53.83;;;16.37;;
66761;SDS011;53672;48.176;16.338;2023-01-08T06:02:10;71.23;;;21.03;;
66761;SDS011;53672;48.176;16.338;2023-01-08T06:07:11;71.97;;;21.83;;
66761;SDS011;53672;48.176;16.338;2023-01-08T06:12:11;80.43;;;22.27;;
66761;SDS011;53672;48.176;16.338;2023-01-08T06:17:13;74.87;;;23.07;;
66761;SDS011;53672;48.176;16.338;2023-01-08T06:22:14;58.33;;;17.35;;
66761;SDS011;53672;48.176;16.338;2023-01-08T06:27:14;82.07;;;23.30;;
66761;SDS011;53672;48.176;16.338;2023-01-08T06:32:16;94.03;;;23.23;;
66761;SDS011;53672;48.176;16.338;2023-01-08T06:37:16;102.60;;;23.43;;
66761;SDS011;53672;48.176;16.338;2023-01-08T06:42:17;76.20;;;19.90;;
66761;SDS011;53672;48.176;16.338;2023-01-08T06:47:19;80.90;;;20.77;;
66761;SDS011;53672;48.176;16.338;2023-01-08T06:52:19;75.20;;;21.77;;
66761;SDS011;53672;48.176;16.338;2023-01-08T06:57:20;78.67;;;23.50;;
66761;SDS011;53672;48.176;16.338;2023-01-08T07:02:22;71.13;;;20.27;;
66761;SDS011;53672;48.176;16.338;2023-01-08T07:07:22;67.38;;;20.63;;
66761;SDS011;53672;48.176;16.338;2023-01-08T07:12:23;72.83;;;22.53;;
66761;SDS011;53672;48.176;16.338;2023-01-08T07:17:25;81.90;;;21.88;;
66761;SDS011;53672;48.176;16.338;2023-01-08T07:22:26;77.33;;;23.33;;
66761;SDS011;53672;48.176;16.338;2023-01-08T07:27:27;75.60;;;22.77;;
66761;SDS011;53672;48.176;16.338;2023-01-08T07:32:29;74.93;;;22.57;;
66761;SDS011;53672;48.176;16.338;2023-01-08T07:37:29;67.57;;;20.52;;
66761;SDS011;53672;48.176;16.338;2023-01-08T07:42:30;76.77;;;21.33;;
66761;SDS011;53672;48.176;16.338;2023-01-08T07:47:32;76.50;;;21.87;;
66761;SDS011;53672;48.176;16.338;2023-01-08T07:52:32;73.68;;;21.00;;
66761;SDS011;53672;48.176;16.338;2023-01-08T07:57:33;81.65;;;19.98;;
66761;SDS011;53672;48.176;16.338;2023-01-08T08:02:34;74.73;;;17.63;;
66761;SDS011;53672;48.176;16.338;2023-01-08T08:07:35;69.73;;;18.83;;
66761;SDS011;53672;48.176;16.338;2023-01-08T08:12:35;104.27;;;20.63;;
66761;SDS011;53672;48.176;16.338;2023-01-08T08:17:37;62.42;;;19.65;;
66761;SDS011;53672;48.176;16.338;2023-01-08T08:22:38;101.67;;;16.93;;
66761;SDS011;53672;48.176;16.338;2023-01-08T08:27:39;83.40;;;18.98;;
66761;SDS011;53672;48.176;16.338;2023-01-08T08:32:41;75.53;;;18.15;;
66761;SDS011;53672;48.176;16.338;2023-01-08T08:37:41;58.47;;;17.37;;
66761;SDS011;53672;48.176;16.338;2023-01-08T08:42:42;73.60;;;18.77;;
66761;SDS011;53672;48.176;16.338;2023-01-08T08:47:43;55.80;;;16.65;;
66761;SDS011;53672;48.176;16.338;2023-01-08T08:52:44;59.85;;;14.95;;
66761;SDS011;53672;48.176;16.338;2023-01-08T08:57:45;62.97;;;15.43;;
66761;SDS011;53672;48.176;16.338;2023-01-08T09:02:49;56.38;;;16.67;;
66761;SDS011;53672;48.176;16.338;2023-01-08T09:07:50;75.10;;;16.30;;
66761;SDS011;53672;48.176;16.338;2023-01-08T09:12:51;55.70;;;16.97;;
66761;SDS011;53672;48.176;16.338;2023-01-08T09:17:53;58.03;;;16.57;;
66761;SDS011;53672;48.176;16.338;2023-01-08T09:22:56;53.92;;;14.85;;
66761;SDS011;53672;48.176;16.338;2023-01-08T09:27:58;58.55;;;15.38;;
66761;SDS011;53672;48.176;16.338;2023-01-08T09:33:01;71.78;;;16.17;;
66761;SDS011;53672;48.176;16.338;2023-01-08T09:38:02;64.47;;;16.15;;
66761;SDS011;53672;48.176;16.338;2023-01-08T09:43:02;61.47;;;16.60;;
66761;SDS011;53672;48.176;16.338;2023-01-08T09:48:05;63.23;;;17.60;;
66761;SDS011;53672;48.176;16.338;2023-01-08T09:53:11;64.40;;;17.13;;
66761;SDS011;53672;48.176;16.338;2023-01-08T09:58:15;63.13;;;16.65;;
66761;SDS011;53672;48.176;16.338;2023-01-08T10:03:26;59.87;;;16.40;;
66761;SDS011;53672;48.176;16.338;2023-01-08T10:08:30;51.80;;;15.82;;
66761;SDS011;53672;48.176;16.338;2023-01-08T10:13:31;66.00;;;18.07;;
66761;SDS011;53672;48.176;16.338;2023-01-08T10:18:35;55.63;;;14.48;;
66761;SDS011;53672;48.176;16.338;2023-01-08T10:23:36;50.05;;;15.73;;
66761;SDS011;53672;48.176;16.338;2023-01-08T10:28:48;54.00;;;16.05;;
66761;SDS011;53672;48.176;16.338;2023-01-08T10:33:50;51.23;;;13.73;;
66761;SDS011;53672;48.176;16.338;2023-01-08T10:38:51;55.90;;;15.93;;
66761;SDS011;53672;48.176;16.338;2023-01-08T10:43:55;51.40;;;15.02;;
66761;SDS011;53672;48.176;16.338;2023-01-08T10:49:01;48.10;;;15.00;;
66761;SDS011;53672;48.176;16.338;2023-01-08T10:54:11;53.10;;;14.87;;
66761;SDS011;53672;48.176;16.338;2023-01-08T10:59:16;46.30;;;15.20;;
66761;SDS011;53672;48.176;16.338;2023-01-08T11:04:20;42.03;;;12.80;;
66761;SDS011;53672;48.176;16.338;2023-01-08T11:09:23;49.38;;;15.18;;
66761;SDS011;53672;48.176;16.338;2023-01-08T11:14:28;52.45;;;15.52;;
66761;SDS011;53672;48.176;16.338;2023-01-08T11:19:32;43.63;;;14.77;;
66761;SDS011;53672;48.176;16.338;2023-01-08T11:24:33;44.08;;;14.75;;
66761;SDS011;53672;48.176;16.338;2023-01-08T11:29:37;41.30;;;14.20;;
66761;SDS011;53672;48.176;16.338;2023-01-08T11:34:46;43.90;;;14.60;;
66761;SDS011;53672;48.176;16.338;2023-01-08T11:39:53;41.28;;;13.73;;
66761;SDS011;53672;48.176;16.338;2023-01-08T11:44:58;40.90;;;12.93;;
66761;SDS011;53672;48.176;16.338;2023-01-08T11:50:13;39.95;;;13.80;;
66761;SDS011;53672;48.176;16.338;2023-01-08T11:55:23;39.53;;;13.23;;
66761;SDS011;53672;48.176;16.338;2023-01-08T12:00:35;36.10;;;12.63;;
66761;SDS011;53672;48.176;16.338;2023-01-08T12:05:42;36.75;;;13.07;;
66761;SDS011;53672;48.176;16.338;2023-01-08T12:10:53;39.77;;;12.93;;
66761;SDS011;53672;48.176;16.338;2023-01-08T12:16:10;35.55;;;12.63;;
66761;SDS011;53672;48.176;16.338;2023-01-08T12:21:22;40.00;;;13.07;;
66761;SDS011;53672;48.176;16.338;2023-01-08T12:26:31;38.00;;;13.90;;
66761;SDS011;53672;48.176;16.338;2023-01-08T12:31:51;35.80;;;11.63;;
66761;SDS011;53672;48.176;16.338;2023-01-08T12:37:10;36.43;;;13.03;;
66761;SDS011;53672;48.176;16.338;2023-01-08T12:42:15;35.95;;;12.65;;
66761;SDS011;53672;48.176;16.338;2023-01-08T12:47:19;35.53;;;12.77;;
66761;SDS011;53672;48.176;16.338;2023-01-08T12:52:27;38.83;;;12.68;;
66761;SDS011;53672;48.176;16.338;2023-01-08T12:57:37;38.40;;;13.13;;
66761;SDS011;53672;48.176;16.338;2023-01-08T13:02:43;42.50;;;14.07;;
66761;SDS011;53672;48.176;16.338;2023-01-08T13:07:53;32.22;;;12.25;;
66761;SDS011;53672;48.176;16.338;2023-01-08T13:12:56;33.97;;;12.07;;
66761;SDS011;53672;48.176;16.338;2023-01-08T13:18:04;37.17;;;13.88;;
66761;SDS011;53672;48.176;16.338;2023-01-08T13:23:20;36.38;;;13.00;;
66761;SDS011;53672;48.176;16.338;2023-01-08T13:28:26;39.00;;;12.60;;
66761;SDS011;53672;48.176;16.338;2023-01-08T13:33:38;36.60;;;12.70;;
66761;SDS011;53672;48.176;16.338;2023-01-08T13:38:40;36.30;;;13.00;;
66761;SDS011;53672;48.176;16.338;2023-01-08T13:43:41;35.60;;;12.43;;
66761;SDS011;53672;48.176;16.338;2023-01-08T13:48:46;33.30;;;12.27;;
66761;SDS011;53672;48.176;16.338;2023-01-08T13:54:01;36.58;;;12.65;;
66761;SDS011;53672;48.176;16.338;2023-01-08T13:59:16;32.30;;;11.63;;
66761;SDS011;53672;48.176;16.338;2023-01-08T14:04:25;30.77;;;11.70;;
66761;SDS011;53672;48.176;16.338;2023-01-08T14:09:27;33.03;;;11.50;;
66761;SDS011;53672;48.176;16.338;2023-01-08T14:14:28;30.73;;;11.20;;
66761;SDS011;53672;48.176;16.338;2023-01-08T14:19:29;29.23;;;10.77;;
66761;SDS011;53672;48.176;16.338;2023-01-08T14:24:31;27.35;;;10.70;;
66761;SDS011;53672;48.176;16.338;2023-01-08T14:29:32;26.70;;;10.30;;
66761;SDS011;53672;48.176;16.338;2023-01-08T14:34:33;27.07;;;10.40;;
66761;SDS011;53672;48.176;16.338;2023-01-08T14:39:40;29.20;;;11.17;;
66761;SDS011;53672;48.176;16.338;2023-01-08T14:44:42;27.73;;;10.63;;
66761;SDS011;53672;48.176;16.338;2023-01-08T14:49:46;26.77;;;11.13;;
66761;SDS011;53672;48.176;16.338;2023-01-08T14:54:53;25.88;;;9.48;;
66761;SDS011;53672;48.176;16.338;2023-01-08T14:59:56;24.53;;;9.93;;
66761;SDS011;53672;48.176;16.338;2023-01-08T15:04:59;27.15;;;10.13;;
66761;SDS011;53672;48.176;16.338;2023-01-08T15:10:02;32.90;;;13.90;;
66761;SDS011;53672;48.176;16.338;2023-01-08T15:15:20;22.65;;;9.95;;
66761;SDS011;53672;48.176;16.338;2023-01-08T15:20:23;28.30;;;10.60;;
66761;SDS011;53672;48.176;16.338;2023-01-08T15:25:30;24.60;;;9.30;;
66761;SDS011;53672;48.176;16.338;2023-01-08T15:30:32;22.60;;;8.95;;
66761;SDS011;53672;48.176;16.338;2023-01-08T15:35:35;29.43;;;10.87;;
66761;SDS011;53672;48.176;16.338;2023-01-08T15:40:37;25.80;;;10.32;;
66761;SDS011;53672;48.176;16.338;2023-01-08T15:45:39;25.45;;;10.35;;
66761;SDS011;53672;48.176;16.338;2023-01-08T15:50:41;24.67;;;10.63;;
66761;SDS011;53672;48.176;16.338;2023-01-08T15:55:44;26.13;;;10.93;;
66761;SDS011;53672;48.176;16.338;2023-01-08T16:00:45;27.35;;;10.27;;
66761;SDS011;53672;48.176;16.338;2023-01-08T16:05:45;25.10;;;9.93;;
66761;SDS011;53672;48.176;16.338;2023-01-08T16:10:51;26.37;;;10.07;;
66761;SDS011;53672;48.176;16.338;2023-01-08T16:15:52;28.85;;;10.60;;
66761;SDS011;53672;48.176;16.338;2023-01-08T16:20:58;28.73;;;10.30;;
66761;SDS011;53672;48.176;16.338;2023-01-08T16:26:03;28.48;;;11.02;;
66761;SDS011;53672;48.176;16.338;2023-01-08T16:31:05;29.93;;;10.97;;
66761;SDS011;53672;48.176;16.338;2023-01-08T16:36:06;31.08;;;10.77;;
66761;SDS011;53672;48.176;16.338;2023-01-08T16:41:10;24.95;;;10.55;;
66761;SDS011;53672;48.176;16.338;2023-01-08T16:46:11;29.02;;;10.60;;
66761;SDS011;53672;48.176;16.338;2023-01-08T16:51:12;30.42;;;10.60;;
66761;SDS011;53672;48.176;16.338;2023-01-08T16:56:15;27.37;;;10.77;;
66761;SDS011;53672;48.176;16.338;2023-01-08T17:01:16;25.27;;;9.27;;
66761;SDS011;53672;48.176;16.338;2023-01-08T17:06:16;24.27;;;9.43;;
66761;SDS011;53672;48.176;16.338;2023-01-08T17:11:19;26.47;;;9.43;;
66761;SDS011;53672;48.176;16.338;2023-01-08T17:16:21;22.55;;;8.60;;
66761;SDS011;53672;48.176;16.338;2023-01-08T17:21:22;24.70;;;9.13;;
66761;SDS011;53672;48.176;16.338;2023-01-08T17:26:24;21.27;;;8.75;;
66761;SDS011;53672;48.176;16.338;2023-01-08T17:31:25;17.58;;;8.15;;
66761;SDS011;53672;48.176;16.338;2023-01-08T17:36:26;24.93;;;8.47;;
66761;SDS011;53672;48.176;16.338;2023-01-08T17:41:28;21.57;;;8.17;;
66761;SDS011;53672;48.176;16.338;2023-01-08T17:46:29;22.02;;;9.00;;
66761;SDS011;53672;48.176;16.338;2023-01-08T17:51:30;20.97;;;8.50;;
66761;SDS011;53672;48.176;16.338;2023-01-08T17:56:32;18.38;;;8.25;;
66761;SDS011;53672;48.176;16.338;2023-01-08T18:01:33;19.50;;;8.33;;
66761;SDS011;53672;48.176;16.338;2023-01-08T18:06:34;22.13;;;8.52;;
66761;SDS011;53672;48.176;16.338;2023-01-08T18:11:36;20.15;;;8.90;;
66761;SDS011;53672;48.176;16.338;2023-01-08T18:16:37;23.08;;;9.65;;
66761;SDS011;53672;48.176;16.338;2023-01-08T18:21:38;21.35;;;9.35;;
66761;SDS011;53672;48.176;16.338;2023-01-08T18:26:40;22.07;;;9.90;;
66761;SDS011;53672;48.176;16.338;2023-01-08T18:31:41;21.58;;;9.30;;
66761;SDS011;53672;48.176;16.338;2023-01-08T18:36:42;26.50;;;10.98;;
66761;SDS011;53672;48.176;16.338;2023-01-08T18:41:44;24.23;;;10.30;;
66761;SDS011;53672;48.176;16.338;2023-01-08T18:46:45;29.27;;;11.02;;
66761;SDS011;53672;48.176;16.338;2023-01-08T18:51:46;32.73;;;14.10;;
66761;SDS011;53672;48.176;16.338;2023-01-08T18:56:48;29.73;;;13.63;;
66761;SDS011;53672;48.176;16.338;2023-01-08T19:01:49;33.67;;;12.60;;
66761;SDS011;53672;48.176;16.338;2023-01-08T19:06:50;34.90;;;15.07;;
66761;SDS011;53672;48.176;16.338;2023-01-08T19:11:52;30.60;;;13.35;;
66761;SDS011;53672;48.176;16.338;2023-01-08T19:16:53;31.77;;;13.50;;
66761;SDS011;53672;48.176;16.338;2023-01-08T19:21:54;31.47;;;13.07;;
66761;SDS011;53672;48.176;16.338;2023-01-08T19:26:56;32.25;;;14.00;;
66761;SDS011;53672;48.176;16.338;2023-01-08T19:31:57;29.27;;;12.93;;
66761;SDS011;53672;48.176;16.338;2023-01-08T19:36:58;34.50;;;14.98;;
66761;SDS011;53672;48.176;16.338;2023-01-08T19:42:03;35.70;;;14.87;;
66761;SDS011;53672;48.176;16.338;2023-01-08T19:47:04;31.67;;;13.68;;
66761;SDS011;53672;48.176;16.338;2023-01-08T19:52:05;29.50;;;13.40;;
66761;SDS011;53672;48.176;16.338;2023-01-08T19:57:07;31.00;;;12.40;;
66761;SDS011;53672;48.176;16.338;2023-01-08T20:02:09;29.90;;;12.82;;
66761;SDS011;53672;48.176;16.338;2023-01-08T20:07:12;36.97;;;14.23;;
66761;SDS011;53672;48.176;16.338;2023-01-08T20:12:15;35.85;;;13.80;;
66761;SDS011;53672;48.176;16.338;2023-01-08T20:17:16;32.90;;;12.90;;
66761;SDS011;53672;48.176;16.338;2023-01-08T20:22:17;36.13;;;15.68;;
66761;SDS011;53672;48.176;16.338;2023-01-08T20:27:19;34.47;;;14.23;;
66761;SDS011;53672;48.176;16.338;2023-01-08T20:32:20;31.03;;;12.93;;
66761;SDS011;53672;48.176;16.338;2023-01-08T20:37:21;36.25;;;14.65;;
66761;SDS011;53672;48.176;16.338;2023-01-08T20:42:24;38.73;;;15.87;;
66761;SDS011;53672;48.176;16.338;2023-01-08T20:47:25;48.05;;;17.98;;
66761;SDS011;53672;48.176;16.338;2023-01-08T20:52:27;43.83;;;17.60;;
66761;SDS011;53672;48.176;16.338;2023-01-08T20:57:29;42.97;;;17.70;;
66761;SDS011;53672;48.176;16.338;2023-01-08T21:02:30;48.00;;;18.30;;
66761;SDS011;53672;48.176;16.338;2023-01-08T21:07:31;46.90;;;18.63;;
66761;SDS011;53672;48.176;16.338;2023-01-08T21:12:33;43.87;;;17.80;;
66761;SDS011;53672;48.176;16.338;2023-01-08T21:17:34;46.65;;;17.95;;
66761;SDS011;53672;48.176;16.338;2023-01-08T21:22:35;44.07;;;17.83;;
66761;SDS011;53672;48.176;16.338;2023-01-08T21:27:37;44.20;;;18.05;;
66761;SDS011;53672;48.176;16.338;2023-01-08T21:32:38;40.38;;;16.58;;
66761;SDS011;53672;48.176;16.338;2023-01-08T21:37:38;46.70;;;19.23;;
66761;SDS011;53672;48.176;16.338;2023-01-08T21:42:40;46.80;;;19.83;;
66761;SDS011;53672;48.176;16.338;2023-01-08T21:47:41;68.30;;;28.93;;
66761;SDS011;53672;48.176;16.338;2023-01-08T21:52:42;65.55;;;25.35;;
66761;SDS011;53672;48.176;16.338;2023-01-08T21:57:44;44.60;;;18.27;;
66761;SDS011;53672;48.176;16.338;2023-01-08T22:02:44;48.13;;;18.00;;
66761;SDS011;53672;48.176;16.338;2023-01-08T22:07:45;49.20;;;17.77;;
66761;SDS011;53672;48.176;16.338;2023-01-08T22:12:47;40.50;;;17.25;;
66761;SDS011;53672;48.176;16.338;2023-01-08T22:17:47;44.20;;;17.33;;
66761;SDS011;53672;48.176;16.338;2023-01-08T22:22:48;41.40;;;16.27;;
66761;SDS011;53672;48.176;16.338;2023-01-08T22:27:50;45.27;;;18.50;;
66761;SDS011;53672;48.176;16.338;2023-01-08T22:32:50;39.63;;;16.25;;
66761;SDS011;53672;48.176;16.338;2023-01-08T22:37:51;34.13;;;13.97;;
66761;SDS011;53672;48.176;16.338;2023-01-08T22:42:53;34.10;;;13.83;;
66761;SDS011;53672;48.176;16.338;2023-01-08T22:47:53;35.45;;;15.10;;
66761;SDS011;53672;48.176;16.338;2023-01-08T22:52:54;37.10;;;14.70;;
66761;SDS011;53672;48.176;16.338;2023-01-08T22:57:56;38.37;;;14.30;;
66761;SDS011;53672;48.176;16.338;2023-01-08T23:02:56;37.45;;;16.13;;
66761;SDS011;53672;48.176;16.338;2023-01-08T23:07:57;44.43;;;18.13;;
66761;SDS011;53672;48.176;16.338;2023-01-08T23:12:58;41.70;;;17.13;;
66761;SDS011;53672;48.176;16.338;2023-01-08T23:17:59;37.50;;;16.02;;
66761;SDS011;53672;48.176;16.338;2023-01-08T23:22:59;37.28;;;15.38;;
66761;SDS011;53672;48.176;16.338;2023-01-08T23:28:01;33.73;;;13.97;;
66761;SDS011;53672;48.176;16.338;2023-01-08T23:33:02;31.50;;;13.07;;
66761;SDS011;53672;48.176;16.338;2023-01-08T23:38:02;34.17;;;13.73;;
66761;SDS011;53672;48.176;16.338;2023-01-08T23:43:04;32.25;;;13.30;;
66761;SDS011;53672;48.176;16.338;2023-01-08T23:48:05;33.20;;;13.50;;
66761;SDS011;53672;48.176;16.338;2023-01-08T23:53:06;33.00;;;14.32;;
66761;SDS011;53672;48.176;16.338;2023-01-08T23:58:07;32.75;;;13.75;;
